Terminal Aerodrome Forecast
Issued by NWS

Home | Current Version | Previous Version | Graphics & Text | Print | Product List | Glossary On
Versions: 1 2 3 4 5 6 7 8 9 10 11 12 13 14 15 16 17 18 19 20 21 22
358
FTUS43 KTOP 040430 AAA
TAFMHK
TAF AMD
KMHK 040430Z 0405/0424 VRB04KT 4SM -RA OVC012
     FM040600 VRB03KT 3SM -RA OVC008
     FM041400 28004KT 4SM BR BKN015
     FM041600 28004KT P6SM SCT100=

USA.gov is the U.S. government's official web portal to all federal, state and local government web resources and services.